sensor_id;sensor_type;location;lat;lon;timestamp;temperature;humidity
80495;DHT22;69819;48.798;11.770;2023-08-12T00:01:24;21.10;51.30
80495;DHT22;69819;48.798;11.770;2023-08-12T00:03:51;21.10;51.40
80495;DHT22;69819;48.798;11.770;2023-08-12T00:06:17;21.00;51.30
80495;DHT22;69819;48.798;11.770;2023-08-12T00:08:42;21.00;51.40
80495;DHT22;69819;48.798;11.770;2023-08-12T00:11:08;21.00;51.40
80495;DHT22;69819;48.798;11.770;2023-08-12T00:13:34;21.00;51.50
80495;DHT22;69819;48.798;11.770;2023-08-12T00:16:00;20.90;51.50
80495;DHT22;69819;48.798;11.770;2023-08-12T00:18:26;20.90;51.60
80495;DHT22;69819;48.798;11.770;2023-08-12T00:20:52;20.90;51.60
80495;DHT22;69819;48.798;11.770;2023-08-12T00:23:18;20.90;51.80
80495;DHT22;69819;48.798;11.770;2023-08-12T00:25:44;20.80;51.80
80495;DHT22;69819;48.798;11.770;2023-08-12T00:28:09;20.80;51.80
80495;DHT22;69819;48.798;11.770;2023-08-12T00:30:35;20.80;51.90
80495;DHT22;69819;48.798;11.770;2023-08-12T00:33:01;20.70;51.90
80495;DHT22;69819;48.798;11.770;2023-08-12T00:35:27;20.70;51.90
80495;DHT22;69819;48.798;11.770;2023-08-12T00:37:53;20.70;52.10
80495;DHT22;69819;48.798;11.770;2023-08-12T00:40:19;20.70;52.20
80495;DHT22;69819;48.798;11.770;2023-08-12T00:42:44;20.60;52.20
80495;DHT22;69819;48.798;11.770;2023-08-12T00:45:12;20.60;52.30
80495;DHT22;69819;48.798;11.770;2023-08-12T00:47:39;20.50;52.20
80495;DHT22;69819;48.798;11.770;2023-08-12T00:50:09;20.50;52.20
80495;DHT22;69819;48.798;11.770;2023-08-12T00:52:37;20.50;52.40
80495;DHT22;69819;48.798;11.770;2023-08-12T00:55:05;20.40;52.20
80495;DHT22;69819;48.798;11.770;2023-08-12T00:57:31;20.40;52.30
80495;DHT22;69819;48.798;11.770;2023-08-12T00:59:57;20.30;52.30
80495;DHT22;69819;48.798;11.770;2023-08-12T01:02:24;20.30;52.40
80495;DHT22;69819;48.798;11.770;2023-08-12T01:04:50;20.30;52.40
80495;DHT22;69819;48.798;11.770;2023-08-12T01:07:16;20.30;52.60
80495;DHT22;69819;48.798;11.770;2023-08-12T01:09:42;20.20;52.60
80495;DHT22;69819;48.798;11.770;2023-08-12T01:12:18;20.20;52.60
80495;DHT22;69819;48.798;11.770;2023-08-12T01:15:08;20.10;53.00
80495;DHT22;69819;48.798;11.770;2023-08-12T01:17:41;20.10;52.60
80495;DHT22;69819;48.798;11.770;2023-08-12T01:20:08;20.10;52.80
80495;DHT22;69819;48.798;11.770;2023-08-12T01:22:40;20.10;52.70
80495;DHT22;69819;48.798;11.770;2023-08-12T01:25:07;20.00;52.70
80495;DHT22;69819;48.798;11.770;2023-08-12T01:27:37;20.00;52.80
80495;DHT22;69819;48.798;11.770;2023-08-12T01:30:04;20.00;52.90
80495;DHT22;69819;48.798;11.770;2023-08-12T01:37:59;19.80;52.90
80495;DHT22;69819;48.798;11.770;2023-08-12T01:40:29;19.80;52.90
80495;DHT22;69819;48.798;11.770;2023-08-12T01:42:58;19.80;52.90
80495;DHT22;69819;48.798;11.770;2023-08-12T01:45:24;19.80;52.90
80495;DHT22;69819;48.798;11.770;2023-08-12T01:47:50;19.70;53.00
80495;DHT22;69819;48.798;11.770;2023-08-12T01:50:17;19.70;53.10
80495;DHT22;69819;48.798;11.770;2023-08-12T01:52:44;19.60;53.10
80495;DHT22;69819;48.798;11.770;2023-08-12T01:55:10;19.60;53.10
80495;DHT22;69819;48.798;11.770;2023-08-12T01:57:36;19.60;53.10
80495;DHT22;69819;48.798;11.770;2023-08-12T02:00:02;19.60;53.10
80495;DHT22;69819;48.798;11.770;2023-08-12T02:02:28;19.50;53.10
80495;DHT22;69819;48.798;11.770;2023-08-12T02:04:54;19.50;53.20
80495;DHT22;69819;48.798;11.770;2023-08-12T02:07:19;19.50;53.30
80495;DHT22;69819;48.798;11.770;2023-08-12T02:09:45;19.40;53.30
80495;DHT22;69819;48.798;11.770;2023-08-12T02:12:11;19.40;53.40
80495;DHT22;69819;48.798;11.770;2023-08-12T02:14:37;19.30;53.30
80495;DHT22;69819;48.798;11.770;2023-08-12T02:17:03;19.30;53.30
80495;DHT22;69819;48.798;11.770;2023-08-12T02:19:32;19.30;53.40
80495;DHT22;69819;48.798;11.770;2023-08-12T02:21:59;19.30;53.40
80495;DHT22;69819;48.798;11.770;2023-08-12T02:24:26;19.30;53.40
80495;DHT22;69819;48.798;11.770;2023-08-12T02:26:53;19.20;53.30
80495;DHT22;69819;48.798;11.770;2023-08-12T02:29:18;19.20;53.30
80495;DHT22;69819;48.798;11.770;2023-08-12T02:31:44;19.10;53.30
80495;DHT22;69819;48.798;11.770;2023-08-12T02:34:10;19.10;53.50
80495;DHT22;69819;48.798;11.770;2023-08-12T02:36:36;19.10;53.60
80495;DHT22;69819;48.798;11.770;2023-08-12T02:39:02;19.10;53.60
80495;DHT22;69819;48.798;11.770;2023-08-12T02:41:28;19.10;53.70
80495;DHT22;69819;48.798;11.770;2023-08-12T02:43:53;19.10;53.70
80495;DHT22;69819;48.798;11.770;2023-08-12T02:46:19;19.00;53.70
80495;DHT22;69819;48.798;11.770;2023-08-12T02:48:45;19.10;53.80
80495;DHT22;69819;48.798;11.770;2023-08-12T02:51:13;19.00;53.70
80495;DHT22;69819;48.798;11.770;2023-08-12T02:53:39;19.00;53.70
80495;DHT22;69819;48.798;11.770;2023-08-12T02:56:04;19.00;53.80
80495;DHT22;69819;48.798;11.770;2023-08-12T02:58:30;19.00;53.80
80495;DHT22;69819;48.798;11.770;2023-08-12T03:00:56;19.00;53.90
80495;DHT22;69819;48.798;11.770;2023-08-12T03:03:22;19.00;54.00
80495;DHT22;69819;48.798;11.770;2023-08-12T03:05:48;19.00;53.90
80495;DHT22;69819;48.798;11.770;2023-08-12T03:08:15;18.90;53.90
80495;DHT22;69819;48.798;11.770;2023-08-12T03:10:41;18.90;53.90
80495;DHT22;69819;48.798;11.770;2023-08-12T03:13:07;18.90;54.00
80495;DHT22;69819;48.798;11.770;2023-08-12T03:15:33;18.90;54.10
80495;DHT22;69819;48.798;11.770;2023-08-12T03:17:59;18.90;54.20
80495;DHT22;69819;48.798;11.770;2023-08-12T03:20:25;18.90;54.20
80495;DHT22;69819;48.798;11.770;2023-08-12T03:22:50;18.90;54.30
80495;DHT22;69819;48.798;11.770;2023-08-12T03:25:16;18.90;54.30
80495;DHT22;69819;48.798;11.770;2023-08-12T03:27:42;18.90;54.30
80495;DHT22;69819;48.798;11.770;2023-08-12T03:30:09;18.90;54.40
80495;DHT22;69819;48.798;11.770;2023-08-12T03:32:35;18.90;54.40
80495;DHT22;69819;48.798;11.770;2023-08-12T03:35:01;18.90;54.30
80495;DHT22;69819;48.798;11.770;2023-08-12T03:37:27;18.90;54.30
80495;DHT22;69819;48.798;11.770;2023-08-12T03:39:52;18.80;54.30
80495;DHT22;69819;48.798;11.770;2023-08-12T03:42:18;18.80;54.30
80495;DHT22;69819;48.798;11.770;2023-08-12T03:44:44;18.80;54.30
80495;DHT22;69819;48.798;11.770;2023-08-12T03:47:10;18.80;54.30
80495;DHT22;69819;48.798;11.770;2023-08-12T03:49:37;18.80;54.30
80495;DHT22;69819;48.798;11.770;2023-08-12T03:52:03;18.80;54.40
80495;DHT22;69819;48.798;11.770;2023-08-12T03:54:29;18.70;54.30
80495;DHT22;69819;48.798;11.770;2023-08-12T03:56:55;18.70;54.40
80495;DHT22;69819;48.798;11.770;2023-08-12T03:59:22;18.70;54.50
80495;DHT22;69819;48.798;11.770;2023-08-12T04:01:48;18.70;54.50
80495;DHT22;69819;48.798;11.770;2023-08-12T04:04:14;18.70;54.50
80495;DHT22;69819;48.798;11.770;2023-08-12T04:06:39;18.70;54.50
80495;DHT22;69819;48.798;11.770;2023-08-12T04:09:05;18.60;54.50
80495;DHT22;69819;48.798;11.770;2023-08-12T04:11:31;18.70;54.60
80495;DHT22;69819;48.798;11.770;2023-08-12T04:13:57;18.60;55.20
80495;DHT22;69819;48.798;11.770;2023-08-12T04:16:23;18.60;54.90
80495;DHT22;69819;48.798;11.770;2023-08-12T04:18:49;18.70;55.40
80495;DHT22;69819;48.798;11.770;2023-08-12T04:21:14;18.90;55.80
80495;DHT22;69819;48.798;11.770;2023-08-12T04:23:40;19.00;55.90
80495;DHT22;69819;48.798;11.770;2023-08-12T04:26:06;19.30;56.10
80495;DHT22;69819;48.798;11.770;2023-08-12T04:28:32;19.50;55.90
80495;DHT22;69819;48.798;11.770;2023-08-12T04:30:57;19.80;55.70
80495;DHT22;69819;48.798;11.770;2023-08-12T04:33:23;20.00;55.30
80495;DHT22;69819;48.798;11.770;2023-08-12T04:35:50;20.20;55.00
80495;DHT22;69819;48.798;11.770;2023-08-12T04:38:18;20.30;54.50
80495;DHT22;69819;48.798;11.770;2023-08-12T04:40:43;20.40;54.20
80495;DHT22;69819;48.798;11.770;2023-08-12T04:43:09;20.50;54.00
80495;DHT22;69819;48.798;11.770;2023-08-12T04:45:35;20.50;53.80
80495;DHT22;69819;48.798;11.770;2023-08-12T04:48:01;20.50;53.80
80495;DHT22;69819;48.798;11.770;2023-08-12T04:50:31;20.50;53.70
80495;DHT22;69819;48.798;11.770;2023-08-12T04:52:59;20.50;54.00
80495;DHT22;69819;48.798;11.770;2023-08-12T04:55:25;20.60;54.60
80495;DHT22;69819;48.798;11.770;2023-08-12T04:57:51;20.60;54.00
80495;DHT22;69819;48.798;11.770;2023-08-12T05:00:18;20.70;54.50
80495;DHT22;69819;48.798;11.770;2023-08-12T05:02:44;21.00;55.20
80495;DHT22;69819;48.798;11.770;2023-08-12T05:05:09;21.40;55.90
80495;DHT22;69819;48.798;11.770;2023-08-12T05:07:35;21.90;56.10
80495;DHT22;69819;48.798;11.770;2023-08-12T05:10:01;22.50;56.10
80495;DHT22;69819;48.798;11.770;2023-08-12T05:12:27;23.20;56.10
80495;DHT22;69819;48.798;11.770;2023-08-12T05:14:53;24.00;55.80
80495;DHT22;69819;48.798;11.770;2023-08-12T05:17:19;24.70;55.30
80495;DHT22;69819;48.798;11.770;2023-08-12T05:19:45;25.40;54.70
80495;DHT22;69819;48.798;11.770;2023-08-12T05:22:11;26.20;54.20
80495;DHT22;69819;48.798;11.770;2023-08-12T05:24:37;26.90;53.50
80495;DHT22;69819;48.798;11.770;2023-08-12T05:27:02;27.60;52.80
80495;DHT22;69819;48.798;11.770;2023-08-12T05:29:30;28.30;51.90
80495;DHT22;69819;48.798;11.770;2023-08-12T05:31:56;28.90;51.10
80495;DHT22;69819;48.798;11.770;2023-08-12T05:34:22;29.50;50.30
80495;DHT22;69819;48.798;11.770;2023-08-12T05:36:48;30.00;49.60
80495;DHT22;69819;48.798;11.770;2023-08-12T05:39:13;30.50;49.00
80495;DHT22;69819;48.798;11.770;2023-08-12T05:41:41;31.00;48.70
80495;DHT22;69819;48.798;11.770;2023-08-12T05:44:07;31.40;48.00
80495;DHT22;69819;48.798;11.770;2023-08-12T05:46:33;32.00;47.50
80495;DHT22;69819;48.798;11.770;2023-08-12T05:48:59;32.40;46.70
80495;DHT22;69819;48.798;11.770;2023-08-12T05:51:24;32.90;46.10
80495;DHT22;69819;48.798;11.770;2023-08-12T05:53:51;33.30;45.60
80495;DHT22;69819;48.798;11.770;2023-08-12T05:56:17;33.70;44.90
80495;DHT22;69819;48.798;11.770;2023-08-12T05:58:42;34.10;44.40
80495;DHT22;69819;48.798;11.770;2023-08-12T06:01:08;34.40;43.70
80495;DHT22;69819;48.798;11.770;2023-08-12T06:03:34;34.70;43.10
80495;DHT22;69819;48.798;11.770;2023-08-12T06:06:00;35.00;42.70
80495;DHT22;69819;48.798;11.770;2023-08-12T06:08:25;35.40;42.40
80495;DHT22;69819;48.798;11.770;2023-08-12T06:10:51;35.80;41.90
80495;DHT22;69819;48.798;11.770;2023-08-12T06:13:17;36.00;41.30
80495;DHT22;69819;48.798;11.770;2023-08-12T06:15:43;36.30;40.80
80495;DHT22;69819;48.798;11.770;2023-08-12T06:18:08;36.60;40.60
80495;DHT22;69819;48.798;11.770;2023-08-12T06:20:34;36.80;40.00
80495;DHT22;69819;48.798;11.770;2023-08-12T06:23:00;37.10;39.80
80495;DHT22;69819;48.798;11.770;2023-08-12T06:25:26;37.40;39.40
80495;DHT22;69819;48.798;11.770;2023-08-12T06:27:52;37.60;39.00
80495;DHT22;69819;48.798;11.770;2023-08-12T06:30:18;37.80;38.50
80495;DHT22;69819;48.798;11.770;2023-08-12T06:32:43;38.00;38.30
80495;DHT22;69819;48.798;11.770;2023-08-12T06:35:09;38.20;37.80
80495;DHT22;69819;48.798;11.770;2023-08-12T06:37:35;38.40;37.50
80495;DHT22;69819;48.798;11.770;2023-08-12T06:40:01;38.70;37.50
80495;DHT22;69819;48.798;11.770;2023-08-12T06:42:28;39.00;37.30
80495;DHT22;69819;48.798;11.770;2023-08-12T06:44:56;39.30;36.70
80495;DHT22;69819;48.798;11.770;2023-08-12T06:47:23;39.60;36.30
80495;DHT22;69819;48.798;11.770;2023-08-12T06:49:49;39.80;35.80
80495;DHT22;69819;48.798;11.770;2023-08-12T06:52:15;40.00;35.40
80495;DHT22;69819;48.798;11.770;2023-08-12T06:54:43;40.20;34.80
80495;DHT22;69819;48.798;11.770;2023-08-12T06:57:09;40.10;34.10
80495;DHT22;69819;48.798;11.770;2023-08-12T06:59:39;39.90;33.60
80495;DHT22;69819;48.798;11.770;2023-08-12T07:02:06;39.60;33.40
80495;DHT22;69819;48.798;11.770;2023-08-12T07:04:32;39.30;33.70
80495;DHT22;69819;48.798;11.770;2023-08-12T07:06:59;39.10;34.30
80495;DHT22;69819;48.798;11.770;2023-08-12T07:09:25;39.10;34.70
80495;DHT22;69819;48.798;11.770;2023-08-12T07:11:51;39.20;34.20
80495;DHT22;69819;48.798;11.770;2023-08-12T07:14:17;39.20;33.60
80495;DHT22;69819;48.798;11.770;2023-08-12T07:16:42;39.00;33.20
80495;DHT22;69819;48.798;11.770;2023-08-12T07:19:08;38.80;33.00
80495;DHT22;69819;48.798;11.770;2023-08-12T07:21:34;38.50;32.90
80495;DHT22;69819;48.798;11.770;2023-08-12T07:24:00;38.10;32.90
80495;DHT22;69819;48.798;11.770;2023-08-12T07:26:26;37.70;33.30
80495;DHT22;69819;48.798;11.770;2023-08-12T07:28:52;37.30;33.80
80495;DHT22;69819;48.798;11.770;2023-08-12T07:31:17;37.10;34.30
80495;DHT22;69819;48.798;11.770;2023-08-12T07:33:43;36.90;34.50
80495;DHT22;69819;48.798;11.770;2023-08-12T07:36:09;36.80;34.60
80495;DHT22;69819;48.798;11.770;2023-08-12T07:38:35;36.90;35.20
80495;DHT22;69819;48.798;11.770;2023-08-12T07:41:00;37.10;35.40
80495;DHT22;69819;48.798;11.770;2023-08-12T07:43:26;37.40;35.40
80495;DHT22;69819;48.798;11.770;2023-08-12T07:45:53;37.80;35.50
80495;DHT22;69819;48.798;11.770;2023-08-12T07:48:20;38.30;35.20
80495;DHT22;69819;48.798;11.770;2023-08-12T07:50:46;38.80;34.90
80495;DHT22;69819;48.798;11.770;2023-08-12T07:53:15;39.20;34.30
80495;DHT22;69819;48.798;11.770;2023-08-12T07:55:41;39.50;33.90
80495;DHT22;69819;48.798;11.770;2023-08-12T07:58:08;39.80;33.60
80495;DHT22;69819;48.798;11.770;2023-08-12T08:00:33;40.10;33.40
80495;DHT22;69819;48.798;11.770;2023-08-12T08:02:59;40.40;33.30
80495;DHT22;69819;48.798;11.770;2023-08-12T08:05:25;40.80;33.00
80495;DHT22;69819;48.798;11.770;2023-08-12T08:07:51;41.10;32.50
80495;DHT22;69819;48.798;11.770;2023-08-12T08:10:17;41.30;32.10
80495;DHT22;69819;48.798;11.770;2023-08-12T08:12:42;41.50;31.70
80495;DHT22;69819;48.798;11.770;2023-08-12T08:15:08;41.60;31.30
80495;DHT22;69819;48.798;11.770;2023-08-12T08:17:34;41.50;30.80
80495;DHT22;69819;48.798;11.770;2023-08-12T08:20:00;41.50;31.00
80495;DHT22;69819;48.798;11.770;2023-08-12T08:22:26;41.50;31.00
80495;DHT22;69819;48.798;11.770;2023-08-12T08:24:52;41.50;30.80
80495;DHT22;69819;48.798;11.770;2023-08-12T08:27:17;41.40;30.60
80495;DHT22;69819;48.798;11.770;2023-08-12T08:29:43;41.40;30.40
80495;DHT22;69819;48.798;11.770;2023-08-12T08:32:09;41.20;30.20
80495;DHT22;69819;48.798;11.770;2023-08-12T08:34:35;40.90;30.10
80495;DHT22;69819;48.798;11.770;2023-08-12T08:37:00;40.60;30.00
80495;DHT22;69819;48.798;11.770;2023-08-12T08:39:26;40.30;30.30
80495;DHT22;69819;48.798;11.770;2023-08-12T08:41:53;40.10;31.50
80495;DHT22;69819;48.798;11.770;2023-08-12T08:44:22;40.00;31.00
80495;DHT22;69819;48.798;11.770;2023-08-12T08:46:52;40.10;31.50
80495;DHT22;69819;48.798;11.770;2023-08-12T08:49:21;40.30;31.20
80495;DHT22;69819;48.798;11.770;2023-08-12T08:51:49;40.50;31.30
80495;DHT22;69819;48.798;11.770;2023-08-12T08:54:16;40.60;30.90
80495;DHT22;69819;48.798;11.770;2023-08-12T08:56:44;40.70;30.70
80495;DHT22;69819;48.798;11.770;2023-08-12T08:59:10;40.60;30.30
80495;DHT22;69819;48.798;11.770;2023-08-12T09:01:36;40.40;30.00
80495;DHT22;69819;48.798;11.770;2023-08-12T09:04:03;40.30;30.00
80495;DHT22;69819;48.798;11.770;2023-08-12T09:06:32;40.20;30.20
80495;DHT22;69819;48.798;11.770;2023-08-12T09:09:00;40.10;30.50
80495;DHT22;69819;48.798;11.770;2023-08-12T09:11:27;40.00;30.50
80495;DHT22;69819;48.798;11.770;2023-08-12T09:13:54;39.80;30.40
80495;DHT22;69819;48.798;11.770;2023-08-12T09:16:20;39.70;30.30
80495;DHT22;69819;48.798;11.770;2023-08-12T09:18:46;39.50;30.30
80495;DHT22;69819;48.798;11.770;2023-08-12T09:21:11;39.30;30.50
80495;DHT22;69819;48.798;11.770;2023-08-12T09:23:38;39.10;30.40
80495;DHT22;69819;48.798;11.770;2023-08-12T09:26:17;38.90;30.30
80495;DHT22;69819;48.798;11.770;2023-08-12T09:28:45;38.60;30.20
80495;DHT22;69819;48.798;11.770;2023-08-12T09:31:26;38.20;30.70
80495;DHT22;69819;48.798;11.770;2023-08-12T09:33:57;38.00;30.80
80495;DHT22;69819;48.798;11.770;2023-08-12T09:36:27;37.70;31.30
80495;DHT22;69819;48.798;11.770;2023-08-12T09:38:55;37.40;31.50
80495;DHT22;69819;48.798;11.770;2023-08-12T09:41:23;37.30;31.70
80495;DHT22;69819;48.798;11.770;2023-08-12T09:43:51;37.10;32.00
80495;DHT22;69819;48.798;11.770;2023-08-12T09:46:18;36.90;32.00
80495;DHT22;69819;48.798;11.770;2023-08-12T09:48:47;36.80;32.30
80495;DHT22;69819;48.798;11.770;2023-08-12T09:51:14;36.70;32.60
80495;DHT22;69819;48.798;11.770;2023-08-12T09:53:42;36.80;32.80
80495;DHT22;69819;48.798;11.770;2023-08-12T09:56:08;36.80;32.90
80495;DHT22;69819;48.798;11.770;2023-08-12T09:58:37;36.80;32.80
80495;DHT22;69819;48.798;11.770;2023-08-12T10:01:06;36.90;32.80
80495;DHT22;69819;48.798;11.770;2023-08-12T10:03:34;36.90;32.80
80495;DHT22;69819;48.798;11.770;2023-08-12T10:06:01;36.90;33.50
80495;DHT22;69819;48.798;11.770;2023-08-12T10:08:29;36.90;32.90
80495;DHT22;69819;48.798;11.770;2023-08-12T10:10:56;36.80;33.30
80495;DHT22;69819;48.798;11.770;2023-08-12T10:13:22;36.80;33.50
80495;DHT22;69819;48.798;11.770;2023-08-12T10:15:49;36.80;33.50
80495;DHT22;69819;48.798;11.770;2023-08-12T10:18:15;36.80;33.50
80495;DHT22;69819;48.798;11.770;2023-08-12T10:20:44;36.90;33.50
80495;DHT22;69819;48.798;11.770;2023-08-12T10:23:15;37.00;33.60
80495;DHT22;69819;48.798;11.770;2023-08-12T10:25:43;37.20;33.50
80495;DHT22;69819;48.798;11.770;2023-08-12T10:28:11;37.40;33.60
80495;DHT22;69819;48.798;11.770;2023-08-12T10:30:39;37.50;33.30
80495;DHT22;69819;48.798;11.770;2023-08-12T10:33:08;37.70;33.40
80495;DHT22;69819;48.798;11.770;2023-08-12T10:35:46;37.90;33.20
80495;DHT22;69819;48.798;11.770;2023-08-12T10:38:20;38.10;32.90
80495;DHT22;69819;48.798;11.770;2023-08-12T10:40:47;38.30;32.60
80495;DHT22;69819;48.798;11.770;2023-08-12T10:43:13;38.30;32.20
80495;DHT22;69819;48.798;11.770;2023-08-12T10:45:52;38.40;32.10
80495;DHT22;69819;48.798;11.770;2023-08-12T10:48:24;38.40;31.80
80495;DHT22;69819;48.798;11.770;2023-08-12T10:50:55;38.30;31.50
80495;DHT22;69819;48.798;11.770;2023-08-12T10:53:28;38.10;31.40
80495;DHT22;69819;48.798;11.770;2023-08-12T10:55:59;37.90;31.60
80495;DHT22;69819;48.798;11.770;2023-08-12T10:58:28;37.80;32.10
80495;DHT22;69819;48.798;11.770;2023-08-12T11:00:55;37.70;32.00
80495;DHT22;69819;48.798;11.770;2023-08-12T11:03:22;37.40;32.00
80495;DHT22;69819;48.798;11.770;2023-08-12T11:05:49;37.20;32.10
80495;DHT22;69819;48.798;11.770;2023-08-12T11:08:16;36.90;32.30
80495;DHT22;69819;48.798;11.770;2023-08-12T11:10:42;36.70;32.60
80495;DHT22;69819;48.798;11.770;2023-08-12T11:13:09;36.60;32.80
80495;DHT22;69819;48.798;11.770;2023-08-12T11:15:43;36.40;32.90
80495;DHT22;69819;48.798;11.770;2023-08-12T11:18:14;36.20;33.10
80495;DHT22;69819;48.798;11.770;2023-08-12T11:20:47;36.20;33.40
80495;DHT22;69819;48.798;11.770;2023-08-12T11:23:13;36.00;33.30
80495;DHT22;69819;48.798;11.770;2023-08-12T11:25:42;35.80;33.30
80495;DHT22;69819;48.798;11.770;2023-08-12T11:28:08;35.60;33.50
80495;DHT22;69819;48.798;11.770;2023-08-12T11:30:34;35.50;33.60
80495;DHT22;69819;48.798;11.770;2023-08-12T11:33:01;35.30;33.80
80495;DHT22;69819;48.798;11.770;2023-08-12T11:35:28;35.10;33.90
80495;DHT22;69819;48.798;11.770;2023-08-12T11:37:57;35.00;34.20
80495;DHT22;69819;48.798;11.770;2023-08-12T11:40:26;34.90;34.50
80495;DHT22;69819;48.798;11.770;2023-08-12T11:42:54;34.80;34.60
80495;DHT22;69819;48.798;11.770;2023-08-12T11:45:22;34.70;34.80
80495;DHT22;69819;48.798;11.770;2023-08-12T11:47:50;34.60;34.80
80495;DHT22;69819;48.798;11.770;2023-08-12T11:50:22;34.50;35.10
80495;DHT22;69819;48.798;11.770;2023-08-12T11:52:53;34.40;35.20
80495;DHT22;69819;48.798;11.770;2023-08-12T11:55:20;34.40;35.30
80495;DHT22;69819;48.798;11.770;2023-08-12T11:57:46;34.30;35.50
80495;DHT22;69819;48.798;11.770;2023-08-12T12:00:13;34.30;35.50
80495;DHT22;69819;48.798;11.770;2023-08-12T12:05:18;34.30;35.80
80495;DHT22;69819;48.798;11.770;2023-08-12T12:07:48;34.30;35.70
80495;DHT22;69819;48.798;11.770;2023-08-12T12:10:19;34.30;35.70
80495;DHT22;69819;48.798;11.770;2023-08-12T12:12:47;34.30;36.00
80495;DHT22;69819;48.798;11.770;2023-08-12T12:15:14;34.30;35.90
80495;DHT22;69819;48.798;11.770;2023-08-12T12:17:46;34.40;36.10
80495;DHT22;69819;48.798;11.770;2023-08-12T12:20:12;34.40;35.80
80495;DHT22;69819;48.798;11.770;2023-08-12T12:22:42;34.50;35.90
80495;DHT22;69819;48.798;11.770;2023-08-12T12:25:11;34.50;35.90
80495;DHT22;69819;48.798;11.770;2023-08-12T12:27:38;34.50;35.80
80495;DHT22;69819;48.798;11.770;2023-08-12T12:30:12;34.60;35.90
80495;DHT22;69819;48.798;11.770;2023-08-12T12:32:39;34.60;35.90
80495;DHT22;69819;48.798;11.770;2023-08-12T12:35:06;34.70;35.90
80495;DHT22;69819;48.798;11.770;2023-08-12T12:37:35;34.70;36.00
80495;DHT22;69819;48.798;11.770;2023-08-12T12:40:02;34.70;36.00
80495;DHT22;69819;48.798;11.770;2023-08-12T12:42:29;34.80;35.90
80495;DHT22;69819;48.798;11.770;2023-08-12T12:44:55;34.80;35.90
80495;DHT22;69819;48.798;11.770;2023-08-12T12:47:21;34.80;35.80
80495;DHT22;69819;48.798;11.770;2023-08-12T12:49:47;34.90;35.80
80495;DHT22;69819;48.798;11.770;2023-08-12T12:52:13;34.90;35.80
80495;DHT22;69819;48.798;11.770;2023-08-12T12:54:38;34.90;35.60
80495;DHT22;69819;48.798;11.770;2023-08-12T12:57:05;35.00;35.70
80495;DHT22;69819;48.798;11.770;2023-08-12T12:59:31;35.00;35.50
80495;DHT22;69819;48.798;11.770;2023-08-12T13:01:57;35.10;35.40
80495;DHT22;69819;48.798;11.770;2023-08-12T13:04:23;35.20;35.50
80495;DHT22;69819;48.798;11.770;2023-08-12T13:06:48;35.20;35.50
80495;DHT22;69819;48.798;11.770;2023-08-12T13:09:14;35.40;35.60
80495;DHT22;69819;48.798;11.770;2023-08-12T13:11:40;35.40;35.40
80495;DHT22;69819;48.798;11.770;2023-08-12T13:14:06;35.60;35.40
80495;DHT22;69819;48.798;11.770;2023-08-12T13:16:32;35.70;35.40
80495;DHT22;69819;48.798;11.770;2023-08-12T13:18:58;35.80;35.50
80495;DHT22;69819;48.798;11.770;2023-08-12T13:21:25;36.00;35.40
80495;DHT22;69819;48.798;11.770;2023-08-12T13:23:51;36.20;35.10
80495;DHT22;69819;48.798;11.770;2023-08-12T13:26:19;36.30;35.00
80495;DHT22;69819;48.798;11.770;2023-08-12T13:28:46;36.50;34.90
80495;DHT22;69819;48.798;11.770;2023-08-12T13:31:13;36.60;34.80
80495;DHT22;69819;48.798;11.770;2023-08-12T13:33:39;36.70;34.50
80495;DHT22;69819;48.798;11.770;2023-08-12T13:36:05;36.70;34.30
80495;DHT22;69819;48.798;11.770;2023-08-12T13:38:30;36.80;34.20
80495;DHT22;69819;48.798;11.770;2023-08-12T13:40:56;36.90;34.30
80495;DHT22;69819;48.798;11.770;2023-08-12T13:43:22;37.00;34.10
80495;DHT22;69819;48.798;11.770;2023-08-12T13:45:48;37.10;34.00
80495;DHT22;69819;48.798;11.770;2023-08-12T13:48:14;37.10;33.80
80495;DHT22;69819;48.798;11.770;2023-08-12T13:50:40;37.20;33.70
80495;DHT22;69819;48.798;11.770;2023-08-12T13:53:06;37.20;33.50
80495;DHT22;69819;48.798;11.770;2023-08-12T13:55:32;37.30;33.30
80495;DHT22;69819;48.798;11.770;2023-08-12T13:57:57;37.40;33.20
80495;DHT22;69819;48.798;11.770;2023-08-12T14:00:23;37.50;33.00
80495;DHT22;69819;48.798;11.770;2023-08-12T14:02:50;37.60;33.10
80495;DHT22;69819;48.798;11.770;2023-08-12T14:05:16;37.70;33.00
80495;DHT22;69819;48.798;11.770;2023-08-12T14:07:42;37.80;32.80
80495;DHT22;69819;48.798;11.770;2023-08-12T14:10:08;37.90;32.80
80495;DHT22;69819;48.798;11.770;2023-08-12T14:12:34;37.90;32.80
80495;DHT22;69819;48.798;11.770;2023-08-12T14:15:00;38.00;32.60
80495;DHT22;69819;48.798;11.770;2023-08-12T14:17:26;38.00;32.10
80495;DHT22;69819;48.798;11.770;2023-08-12T14:19:53;38.00;32.10
80495;DHT22;69819;48.798;11.770;2023-08-12T14:22:21;38.00;32.10
80495;DHT22;69819;48.798;11.770;2023-08-12T14:24:47;38.00;32.10
80495;DHT22;69819;48.798;11.770;2023-08-12T14:27:16;38.00;32.10
80495;DHT22;69819;48.798;11.770;2023-08-12T14:29:45;38.00;32.10
80495;DHT22;69819;48.798;11.770;2023-08-12T14:32:12;37.90;31.90
80495;DHT22;69819;48.798;11.770;2023-08-12T14:34:37;37.90;31.90
80495;DHT22;69819;48.798;11.770;2023-08-12T14:37:03;37.80;31.70
80495;DHT22;69819;48.798;11.770;2023-08-12T14:39:29;37.70;31.90
80495;DHT22;69819;48.798;11.770;2023-08-12T14:41:55;37.60;31.90
80495;DHT22;69819;48.798;11.770;2023-08-12T14:44:21;37.60;31.90
80495;DHT22;69819;48.798;11.770;2023-08-12T14:46:47;37.50;32.00
80495;DHT22;69819;48.798;11.770;2023-08-12T14:49:13;37.40;32.10
80495;DHT22;69819;48.798;11.770;2023-08-12T14:51:38;37.30;32.20
80495;DHT22;69819;48.798;11.770;2023-08-12T14:54:04;37.30;32.30
80495;DHT22;69819;48.798;11.770;2023-08-12T14:56:31;37.30;32.50
80495;DHT22;69819;48.798;11.770;2023-08-12T14:58:57;37.10;32.50
80495;DHT22;69819;48.798;11.770;2023-08-12T15:01:22;37.10;32.90
80495;DHT22;69819;48.798;11.770;2023-08-12T15:03:50;37.10;33.20
80495;DHT22;69819;48.798;11.770;2023-08-12T15:06:16;37.10;33.30
80495;DHT22;69819;48.798;11.770;2023-08-12T15:08:42;37.20;33.30
80495;DHT22;69819;48.798;11.770;2023-08-12T15:11:08;37.20;33.20
80495;DHT22;69819;48.798;11.770;2023-08-12T15:13:34;37.30;33.10
80495;DHT22;69819;48.798;11.770;2023-08-12T15:16:00;37.40;33.10
80495;DHT22;69819;48.798;11.770;2023-08-12T15:18:26;37.30;32.90
80495;DHT22;69819;48.798;11.770;2023-08-12T15:20:51;37.40;32.90